Shinko Maru — JL6636 — position and weather

sailwx.info

Track history (hours):
 
Tides and Currents Weather Stations Pressure Air Temp Water Temp Dewpoint Dewpoint Depression Visibility Wind Speed Wind Dir Waves Ship Positions

Shinko Maru

Last reported at 2018-Feb-20 17:00 UTC. Time now 2018-Feb-20 17:23 UTC.
Position N 34°34' E 135°23'.

Length 66 m; draft 3.7 m.

Type: Tanker. MMSI: 431501479.

Date/timePositionNaut miles runAvg speedWind from/ knotsBaromVisibWave heightAir tempDewpointWater temp
2018-Feb-20 17:00N 34°34' E 135°23'0 0.0
2018-Feb-20 16:27N 34°34' E 135°23'0 0.0
2018-Feb-20 15:57N 34°34' E 135°23'0 0.0
2018-Feb-20 15:27N 34°34' E 135°23'0 0.0
2018-Feb-20 15:00N 34°34' E 135°23'0 0.0
2018-Feb-20 14:27N 34°34' E 135°23'0 0.0
2018-Feb-20 14:00N 34°34' E 135°23'0 0.0
2018-Feb-20 13:27N 34°34' E 135°23'0 0.0
2018-Feb-20 13:00N 34°34' E 135°23'0 0.0
2018-Feb-20 12:30N 34°34' E 135°23'0 0.0
2018-Feb-20 11:57N 34°34' E 135°23'0 0.0
2018-Feb-20 11:30N 34°34' E 135°23'0 0.0
2018-Feb-20 11:00N 34°34' E 135°23'2 4.0
2018-Feb-20 10:30N 34°34' E 135°21'612.3
2018-Feb-20 10:01N 34°34' E 135°13'612.3
2018-Feb-20 09:30N 34°35' E 135°06'713.7
2018-Feb-20 08:59N 34°36' E 134°58'714.4
2018-Feb-20 08:31N 34°34' E 134°50'612.9
2018-Feb-20 08:01N 34°31' E 134°43'612.6
2018-Feb-20 07:30N 34°29' E 134°36'612.5
2018-Feb-20 07:00N 34°26' E 134°29'612.4
2018-Feb-20 06:30N 34°24' E 134°22'812.8
2018-Feb-20 05:53N 34°24' E 134°12'1 0.0
2018-Feb-19 12:27N 34°25' E 134°12'512.1
2018-Feb-19 12:00N 34°25' E 134°18'611.7
2018-Feb-19 11:30N 34°26' E 134°25'611.6
2018-Feb-19 11:00N 34°29' E 134°32'611.5
2018-Feb-19 10:30N 34°31' E 134°38'611.4
2018-Feb-19 10:00N 34°33' E 134°45'510.9
2018-Feb-19 09:30N 34°35' E 134°51'510.1
2018-Feb-19 09:00N 34°37' E 134°56'4 8.5
2018-Feb-19 08:30N 34°37' E 135°02'4 8.0
2018-Feb-19 08:00N 34°35' E 135°06'611.0
2018-Feb-19 07:30N 34°35' E 135°13'510.9
2018-Feb-19 07:00N 34°34' E 135°19'510.4
2018-Feb-19 06:30N 34°33' E 135°25'0 0.3
2018-Feb-19 05:58N 34°33' E 135°26'0 0.0
2018-Feb-19 05:28N 34°33' E 135°26'0 0.0
2018-Feb-19 04:58N 34°33' E 135°26'0 0.0
2018-Feb-19 04:28N 34°33' E 135°26'0 0.0
2018-Feb-19 03:58N 34°33' E 135°26'0 0.0
2018-Feb-19 03:28N 34°33' E 135°26'0 0.0
2018-Feb-19 02:58N 34°33' E 135°26'0 0.0
2018-Feb-19 02:28N 34°33' E 135°26'0 0.0
2018-Feb-19 01:58N 34°33' E 135°26'0 0.0
2018-Feb-19 01:28N 34°33' E 135°26'0 0.0
2018-Feb-19 00:58N 34°33' E 135°26'0 0.1
2018-Feb-19 00:30N 34°33' E 135°25'2 4.3
2018-Feb-19 00:00N 34°34' E 135°23'0 0.0
2018-Feb-18 23:30N 34°34' E 135°23'0 0.0
2018-Feb-18 23:00N 34°34' E 135°23'0 0.0
2018-Feb-18 22:30N 34°34' E 135°23'0 0.1
2018-Feb-18 22:00N 34°34' E 135°23'0 0.1
2018-Feb-18 21:30N 34°34' E 135°23'5 9.6
2018-Feb-18 21:00N 34°34' E 135°17'612.0
2018-Feb-18 20:30N 34°35' E 135°10'713.3
2018-Feb-18 20:00N 34°36' E 135°02'714.0
2018-Feb-18 19:30N 34°35' E 134°54'713.8
2018-Feb-18 19:00N 34°32' E 134°46'612.4
2018-Feb-18 18:30N 34°30' E 134°39'612.1
2018-Feb-18 18:00N 34°27' E 134°33'612.0
2018-Feb-18 17:29N 34°25' E 134°26'712.1
2018-Feb-18 16:56N 34°24' E 134°18'512.5
2018-Feb-18 16:30N 34°25' E 134°11'7410.9
2018-Feb-18 09:41N 34°01' E 132°46'211.7
2018-Feb-18 09:30N 33°59' E 132°44'510.7
2018-Feb-18 09:00N 33°55' E 132°40'511.1
2018-Feb-18 08:31N 33°53' E 132°34'611.1
2018-Feb-18 07:59N 33°51' E 132°28'511.0
2018-Feb-18 07:30N 33°50' E 132°21'711.1
2018-Feb-18 06:52N 33°49' E 132°13'410.9
2018-Feb-18 06:30N 33°48' E 132°08'611.1
2018-Feb-18 06:00N 33°45' E 132°02'611.9
2018-Feb-18 05:31N 33°45' E 131°55'612.4
2018-Feb-18 05:00N 33°46' E 131°48'612.8
2018-Feb-18 04:30N 33°48' E 131°41'612.6
2018-Feb-18 04:01N 33°49' E 131°33'612.4
2018-Feb-18 03:30N 33°50' E 131°26'612.1
2018-Feb-18 03:00N 33°52' E 131°19'612.0
2018-Feb-18 02:31N 33°53' E 131°12'611.6
2018-Feb-18 02:01N 33°56' E 131°06'510.8
2018-Feb-18 01:30N 33°58' E 130°60'4 8.2
2018-Feb-18 01:00N 33°56' E 130°56'3 6.0
2018-Feb-18 00:31N 33°55' E 130°53'1 2.4
2018-Feb-17 23:58N 33°55' E 130°51'0 0.0
2018-Feb-17 23:28N 33°55' E 130°51'0 0.0
2018-Feb-17 22:58N 33°55' E 130°51'1 2.1
2018-Feb-17 22:30N 33°55' E 130°52'4 7.6
2018-Feb-17 22:00N 33°57' E 130°56'4 7.6
2018-Feb-17 21:30N 33°59' E 131°00'3 6.1
2018-Feb-17 20:58N 33°58' E 131°04'0 0.0
2018-Feb-17 20:28N 33°58' E 131°04'0 0.0
2018-Feb-17 19:58N 33°58' E 131°04'0 0.1
2018-Feb-17 19:28N 33°58' E 131°04'0 0.0
2018-Feb-17 18:58N 33°58' E 131°04'0 0.0
2018-Feb-17 18:28N 33°58' E 131°04'0 0.0
2018-Feb-17 17:58N 33°58' E 131°04'0 0.0
2018-Feb-17 17:28N 33°58' E 131°04'0 0.0
2018-Feb-17 16:58N 33°58' E 131°04'0 0.0
2018-Feb-17 16:28N 33°58' E 131°04'0 0.0
2018-Feb-17 15:58N 33°58' E 131°04'0 0.1
2018-Feb-17 15:28N 33°58' E 131°04'0 0.1
2018-Feb-17 14:58N 33°58' E 131°04'1 2.1
2018-Feb-17 14:31N 33°57' E 131°05'611.8
2018-Feb-17 14:00N 33°54' E 131°11'611.7
2018-Feb-17 13:30N 33°52' E 131°17'612.2
2018-Feb-17 13:00N 33°51' E 131°24'612.2
2018-Feb-17 12:30N 33°50' E 131°32'612.1
2018-Feb-17 12:00N 33°48' E 131°39'612.1
2018-Feb-17 11:30N 33°47' E 131°46'1311.6
2018-Feb-17 10:24N 33°46' E 132°01'411.3
2018-Feb-17 10:00N 33°47' E 132°06'711.2
2018-Feb-17 09:21N 33°50' E 132°14'411.3
2018-Feb-17 09:00N 33°50' E 132°19'1011.5
2018-Feb-17 08:08N 33°52' E 132°31'212.7
2018-Feb-17 07:56N 33°53' E 132°34'612.7
2018-Feb-17 07:30N 33°56' E 132°40'89 1.8
2018-Feb-15 06:40N 34°25' E 134°20'211.5
2018-Feb-15 06:30N 34°26' E 134°22'611.7
2018-Feb-15 06:00N 34°28' E 134°29'611.7
2018-Feb-15 05:30N 34°30' E 134°36'611.3
2018-Feb-15 05:00N 34°32' E 134°42'611.5
2018-Feb-15 04:30N 34°34' E 134°49'510.6
2018-Feb-15 04:00N 34°36' E 134°55'510.5
2018-Feb-15 03:30N 34°37' E 135°01'510.8
2018-Feb-15 03:00N 34°36' E 135°07'612.0
2018-Feb-15 02:30N 34°35' E 135°14'611.8
2018-Feb-15 02:00N 34°34' E 135°21'4 7.1
2018-Feb-15 01:29N 34°33' E 135°26'0 0.0
2018-Feb-15 00:59N 34°33' E 135°26'0 0.0
2018-Feb-15 00:29N 34°33' E 135°26'0 0.0
2018-Feb-14 23:59N 34°33' E 135°26'0 0.0
2018-Feb-14 23:29N 34°33' E 135°26'1 2.9
2018-Feb-14 23:00N 34°33' E 135°24'1 1.4
2018-Feb-14 22:26N 34°34' E 135°23'0 0.0
2018-Feb-14 21:59N 34°34' E 135°23'0 0.0
2018-Feb-14 21:29N 34°34' E 135°23'0 0.0
2018-Feb-14 20:56N 34°34' E 135°23'0 0.0
2018-Feb-14 20:26N 34°34' E 135°23'0 0.0
2018-Feb-14 19:59N 34°34' E 135°23'0 0.0
2018-Feb-14 19:26N 34°34' E 135°23'0 0.0
2018-Feb-14 18:59N 34°34' E 135°23'0 0.0
2018-Feb-14 18:29N 34°34' E 135°23'0 0.0
2018-Feb-14 17:59N 34°34' E 135°23'0 0.1
2018-Feb-14 17:29N 34°34' E 135°23'0 0.0
2018-Feb-14 16:59N 34°34' E 135°23'0 0.0
2018-Feb-14 16:29N 34°34' E 135°23'0 0.0
2018-Feb-14 15:56N 34°34' E 135°23'0 0.0
2018-Feb-14 15:29N 34°34' E 135°23'0 0.0
2018-Feb-14 14:59N 34°34' E 135°23'0 0.0
2018-Feb-14 14:29N 34°34' E 135°23'0 0.0
2018-Feb-14 13:56N 34°34' E 135°23'0 0.0
2018-Feb-14 13:29N 34°34' E 135°23'0 0.0
2018-Feb-14 12:59N 34°34' E 135°23'0 0.1
2018-Feb-14 12:26N 34°34' E 135°23'0 0.0
2018-Feb-14 11:56N 34°34' E 135°23'0 0.0
2018-Feb-14 11:29N 34°34' E 135°23'0 0.0
2018-Feb-14 10:56N 34°34' E 135°23'0 0.0
2018-Feb-14 10:29N 34°34' E 135°23'0 0.0
2018-Feb-14 09:59N 34°34' E 135°23'0 0.0
2018-Feb-14 09:29N 34°34' E 135°23'0 0.0
2018-Feb-14 08:59N 34°34' E 135°23'0 0.0
2018-Feb-14 08:29N 34°34' E 135°23'0 0.0
2018-Feb-14 07:59N 34°34' E 135°23'0 0.0
2018-Feb-14 07:29N 34°34' E 135°23'0 0.0
2018-Feb-14 07:00N 34°34' E 135°23'5 9.3
2018-Feb-14 06:30N 34°31' E 135°19'612.2
2018-Feb-14 06:01N 34°27' E 135°13'611.7
2018-Feb-14 05:31N 34°23' E 135°07'611.3
2018-Feb-14 05:00N 34°20' E 135°02'5 9.9
2018-Feb-14 04:31N 34°15' E 134°59'611.7
2018-Feb-14 04:00N 34°10' E 134°56'611.8
2018-Feb-14 03:31N 34°05' E 134°52'611.8
2018-Feb-14 03:00N 34°00' E 134°48'811.7
2018-Feb-14 02:17N 33°53' E 134°43'3 1.1
2018-Feb-13 23:18N 33°51' E 134°39'2 0.4
2018-Feb-13 16:44N 33°52' E 134°42'0 0.0
2018-Feb-13 16:26N 33°52' E 134°42'0 0.0
2018-Feb-13 15:58N 33°52' E 134°42'6 9.8
2018-Feb-13 15:24N 33°57' E 134°45'512.3
2018-Feb-13 15:00N 34°02' E 134°44'612.3
2018-Feb-13 14:30N 34°08' E 134°42'713.8
2018-Feb-13 14:00N 34°14' E 134°39'611.2
2018-Feb-13 13:30N 34°17' E 134°33'612.1
2018-Feb-13 13:00N 34°19' E 134°26'612.1
2018-Feb-13 12:30N 34°22' E 134°20'712.0
2018-Feb-13 11:56N 34°24' E 134°12'7710.3
2018-Feb-13 04:30N 34°06' E 132°42'611.5
2018-Feb-13 04:00N 34°04' E 132°36'810.7
2018-Feb-13 03:17N 34°05' E 132°27'412.3
2018-Feb-13 02:58N 34°07' E 132°23'612.3
2018-Feb-13 02:30N 34°11' E 132°17'4 8.6
2018-Feb-13 02:00N 34°14' E 132°14'0 0.0
2018-Feb-13 01:30N 34°14' E 132°14'0 0.0
2018-Feb-13 01:00N 34°14' E 132°14'0 0.0
2018-Feb-13 00:30N 34°14' E 132°14'0 0.0
2018-Feb-13 00:00N 34°14' E 132°14'0 0.0
2018-Feb-12 23:30N 34°14' E 132°14'0 0.4
2018-Feb-12 23:00N 34°14' E 132°14'0 0.6
2018-Feb-12 22:28N 34°14' E 132°14'0 0.0
2018-Feb-12 21:58N 34°14' E 132°14'0 0.0
2018-Feb-12 21:28N 34°14' E 132°14'0 0.0
2018-Feb-12 20:58N 34°14' E 132°14'0 0.0
2018-Feb-12 20:28N 34°14' E 132°14'0 0.0
2018-Feb-12 19:58N 34°14' E 132°14'0 0.0
2018-Feb-12 19:28N 34°14' E 132°14'0 0.0
2018-Feb-12 18:58N 34°14' E 132°14'0 0.0
2018-Feb-12 18:28N 34°14' E 132°14'0 0.0
2018-Feb-12 17:58N 34°14' E 132°14'0 0.0
2018-Feb-12 17:28N 34°14' E 132°14'0 0.0
2018-Feb-12 16:58N 34°14' E 132°14'0 0.0
2018-Feb-12 16:28N 34°14' E 132°14'0 0.0
2018-Feb-12 15:58N 34°14' E 132°14'0 0.0
2018-Feb-12 15:16N 34°14' E 132°14'0 0.0
2018-Feb-12 14:58N 34°14' E 132°14'0 0.0
2018-Feb-12 14:19N 34°14' E 132°14'0 0.0
2018-Feb-12 13:55N 34°14' E 132°14'0 0.0
2018-Feb-12 13:28N 34°14' E 132°14'0 0.0
2018-Feb-12 12:52N 34°14' E 132°14'0 0.0
2018-Feb-12 12:25N 34°14' E 132°14'0 0.0
2018-Feb-12 11:58N 34°14' E 132°14'0 0.0
2018-Feb-12 11:28N 34°14' E 132°14'0 0.0
2018-Feb-12 10:58N 34°14' E 132°14'0 0.0
2018-Feb-12 10:28N 34°14' E 132°14'2 4.3
2018-Feb-12 10:00N 34°13' E 132°16'611.0
2018-Feb-12 09:30N 34°09' E 132°21'510.9
2018-Feb-12 09:00N 34°05' E 132°26'710.5
2018-Feb-12 08:21N 34°03' E 132°33'410.5
2018-Feb-12 08:00N 34°04' E 132°38'  
Track history (hours):
 
Tides and Currents Weather Stations Pressure Air Temp Water Temp Dewpoint Dewpoint Depression Visibility Wind Speed Wind Dir Waves Ship Positions

Shinko Maru

Last reported at 2018-Feb-20 17:00 UTC. Time now 2018-Feb-20 17:23 UTC.
Position N 34°34' E 135°23'.

Length 66 m; draft 3.7 m.

Type: Tanker. MMSI: 431501479.

Date/timePositionNaut miles runAvg speedWind from/ knotsBaromVisibWave heightAir tempDewpointWater temp
2018-Feb-20 17:00N 34°34' E 135°23'0 0.0
2018-Feb-20 16:27N 34°34' E 135°23'0 0.0
2018-Feb-20 15:57N 34°34' E 135°23'0 0.0
2018-Feb-20 15:27N 34°34' E 135°23'0 0.0
2018-Feb-20 15:00N 34°34' E 135°23'0 0.0
2018-Feb-20 14:27N 34°34' E 135°23'0 0.0
2018-Feb-20 14:00N 34°34' E 135°23'0 0.0
2018-Feb-20 13:27N 34°34' E 135°23'0 0.0
2018-Feb-20 13:00N 34°34' E 135°23'0 0.0
2018-Feb-20 12:30N 34°34' E 135°23'0 0.0
2018-Feb-20 11:57N 34°34' E 135°23'0 0.0
2018-Feb-20 11:30N 34°34' E 135°23'0 0.0
2018-Feb-20 11:00N 34°34' E 135°23'2 4.0
2018-Feb-20 10:30N 34°34' E 135°21'612.3
2018-Feb-20 10:01N 34°34' E 135°13'612.3
2018-Feb-20 09:30N 34°35' E 135°06'713.7
2018-Feb-20 08:59N 34°36' E 134°58'714.4
2018-Feb-20 08:31N 34°34' E 134°50'612.9
2018-Feb-20 08:01N 34°31' E 134°43'612.6
2018-Feb-20 07:30N 34°29' E 134°36'612.5
2018-Feb-20 07:00N 34°26' E 134°29'612.4
2018-Feb-20 06:30N 34°24' E 134°22'812.8
2018-Feb-20 05:53N 34°24' E 134°12'1 0.0
2018-Feb-19 12:27N 34°25' E 134°12'512.1
2018-Feb-19 12:00N 34°25' E 134°18'611.7
2018-Feb-19 11:30N 34°26' E 134°25'611.6
2018-Feb-19 11:00N 34°29' E 134°32'611.5
2018-Feb-19 10:30N 34°31' E 134°38'611.4
2018-Feb-19 10:00N 34°33' E 134°45'510.9
2018-Feb-19 09:30N 34°35' E 134°51'510.1
2018-Feb-19 09:00N 34°37' E 134°56'4 8.5
2018-Feb-19 08:30N 34°37' E 135°02'4 8.0
2018-Feb-19 08:00N 34°35' E 135°06'611.0
2018-Feb-19 07:30N 34°35' E 135°13'510.9
2018-Feb-19 07:00N 34°34' E 135°19'510.4
2018-Feb-19 06:30N 34°33' E 135°25'0 0.3
2018-Feb-19 05:58N 34°33' E 135°26'0 0.0
2018-Feb-19 05:28N 34°33' E 135°26'0 0.0
2018-Feb-19 04:58N 34°33' E 135°26'0 0.0
2018-Feb-19 04:28N 34°33' E 135°26'0 0.0
2018-Feb-19 03:58N 34°33' E 135°26'0 0.0
2018-Feb-19 03:28N 34°33' E 135°26'0 0.0
2018-Feb-19 02:58N 34°33' E 135°26'0 0.0
2018-Feb-19 02:28N 34°33' E 135°26'0 0.0
2018-Feb-19 01:58N 34°33' E 135°26'0 0.0
2018-Feb-19 01:28N 34°33' E 135°26'0 0.0
2018-Feb-19 00:58N 34°33' E 135°26'0 0.1
2018-Feb-19 00:30N 34°33' E 135°25'2 4.3
2018-Feb-19 00:00N 34°34' E 135°23'0 0.0
2018-Feb-18 23:30N 34°34' E 135°23'0 0.0
2018-Feb-18 23:00N 34°34' E 135°23'0 0.0
2018-Feb-18 22:30N 34°34' E 135°23'0 0.1
2018-Feb-18 22:00N 34°34' E 135°23'0 0.1
2018-Feb-18 21:30N 34°34' E 135°23'5 9.6
2018-Feb-18 21:00N 34°34' E 135°17'612.0
2018-Feb-18 20:30N 34°35' E 135°10'713.3
2018-Feb-18 20:00N 34°36' E 135°02'714.0
2018-Feb-18 19:30N 34°35' E 134°54'713.8
2018-Feb-18 19:00N 34°32' E 134°46'612.4
2018-Feb-18 18:30N 34°30' E 134°39'612.1
2018-Feb-18 18:00N 34°27' E 134°33'612.0
2018-Feb-18 17:29N 34°25' E 134°26'712.1
2018-Feb-18 16:56N 34°24' E 134°18'512.5
2018-Feb-18 16:30N 34°25' E 134°11'7410.9
2018-Feb-18 09:41N 34°01' E 132°46'211.7
2018-Feb-18 09:30N 33°59' E 132°44'510.7
2018-Feb-18 09:00N 33°55' E 132°40'511.1
2018-Feb-18 08:31N 33°53' E 132°34'611.1
2018-Feb-18 07:59N 33°51' E 132°28'511.0
2018-Feb-18 07:30N 33°50' E 132°21'711.1
2018-Feb-18 06:52N 33°49' E 132°13'410.9
2018-Feb-18 06:30N 33°48' E 132°08'611.1
2018-Feb-18 06:00N 33°45' E 132°02'611.9
2018-Feb-18 05:31N 33°45' E 131°55'612.4
2018-Feb-18 05:00N 33°46' E 131°48'612.8
2018-Feb-18 04:30N 33°48' E 131°41'612.6
2018-Feb-18 04:01N 33°49' E 131°33'612.4
2018-Feb-18 03:30N 33°50' E 131°26'612.1
2018-Feb-18 03:00N 33°52' E 131°19'612.0
2018-Feb-18 02:31N 33°53' E 131°12'611.6
2018-Feb-18 02:01N 33°56' E 131°06'510.8
2018-Feb-18 01:30N 33°58' E 130°60'4 8.2
2018-Feb-18 01:00N 33°56' E 130°56'3 6.0
2018-Feb-18 00:31N 33°55' E 130°53'1 2.4
2018-Feb-17 23:58N 33°55' E 130°51'0 0.0
2018-Feb-17 23:28N 33°55' E 130°51'0 0.0
2018-Feb-17 22:58N 33°55' E 130°51'1 2.1
2018-Feb-17 22:30N 33°55' E 130°52'4 7.6
2018-Feb-17 22:00N 33°57' E 130°56'4 7.6
2018-Feb-17 21:30N 33°59' E 131°00'3 6.1
2018-Feb-17 20:58N 33°58' E 131°04'0 0.0
2018-Feb-17 20:28N 33°58' E 131°04'0 0.0
2018-Feb-17 19:58N 33°58' E 131°04'0 0.1
2018-Feb-17 19:28N 33°58' E 131°04'0 0.0
2018-Feb-17 18:58N 33°58' E 131°04'0 0.0
2018-Feb-17 18:28N 33°58' E 131°04'0 0.0
2018-Feb-17 17:58N 33°58' E 131°04'0 0.0
2018-Feb-17 17:28N 33°58' E 131°04'0 0.0
2018-Feb-17 16:58N 33°58' E 131°04'0 0.0
2018-Feb-17 16:28N 33°58' E 131°04'0 0.0
2018-Feb-17 15:58N 33°58' E 131°04'0 0.1
2018-Feb-17 15:28N 33°58' E 131°04'0 0.1
2018-Feb-17 14:58N 33°58' E 131°04'1 2.1
2018-Feb-17 14:31N 33°57' E 131°05'611.8
2018-Feb-17 14:00N 33°54' E 131°11'611.7
2018-Feb-17 13:30N 33°52' E 131°17'612.2
2018-Feb-17 13:00N 33°51' E 131°24'612.2
2018-Feb-17 12:30N 33°50' E 131°32'612.1
2018-Feb-17 12:00N 33°48' E 131°39'612.1
2018-Feb-17 11:30N 33°47' E 131°46'1311.6
2018-Feb-17 10:24N 33°46' E 132°01'411.3
2018-Feb-17 10:00N 33°47' E 132°06'711.2
2018-Feb-17 09:21N 33°50' E 132°14'411.3
2018-Feb-17 09:00N 33°50' E 132°19'1011.5
2018-Feb-17 08:08N 33°52' E 132°31'212.7
2018-Feb-17 07:56N 33°53' E 132°34'612.7
2018-Feb-17 07:30N 33°56' E 132°40'89 1.8
2018-Feb-15 06:40N 34°25' E 134°20'211.5
2018-Feb-15 06:30N 34°26' E 134°22'611.7
2018-Feb-15 06:00N 34°28' E 134°29'611.7
2018-Feb-15 05:30N 34°30' E 134°36'611.3
2018-Feb-15 05:00N 34°32' E 134°42'611.5
2018-Feb-15 04:30N 34°34' E 134°49'510.6
2018-Feb-15 04:00N 34°36' E 134°55'510.5
2018-Feb-15 03:30N 34°37' E 135°01'510.8
2018-Feb-15 03:00N 34°36' E 135°07'612.0
2018-Feb-15 02:30N 34°35' E 135°14'611.8
2018-Feb-15 02:00N 34°34' E 135°21'4 7.1
2018-Feb-15 01:29N 34°33' E 135°26'0 0.0
2018-Feb-15 00:59N 34°33' E 135°26'0 0.0
2018-Feb-15 00:29N 34°33' E 135°26'0 0.0
2018-Feb-14 23:59N 34°33' E 135°26'0 0.0
2018-Feb-14 23:29N 34°33' E 135°26'1 2.9
2018-Feb-14 23:00N 34°33' E 135°24'1 1.4
2018-Feb-14 22:26N 34°34' E 135°23'0 0.0
2018-Feb-14 21:59N 34°34' E 135°23'0 0.0
2018-Feb-14 21:29N 34°34' E 135°23'0 0.0
2018-Feb-14 20:56N 34°34' E 135°23'0 0.0
2018-Feb-14 20:26N 34°34' E 135°23'0 0.0
2018-Feb-14 19:59N 34°34' E 135°23'0 0.0
2018-Feb-14 19:26N 34°34' E 135°23'0 0.0
2018-Feb-14 18:59N 34°34' E 135°23'0 0.0
2018-Feb-14 18:29N 34°34' E 135°23'0 0.0
2018-Feb-14 17:59N 34°34' E 135°23'0 0.1
2018-Feb-14 17:29N 34°34' E 135°23'0 0.0
2018-Feb-14 16:59N 34°34' E 135°23'0 0.0
2018-Feb-14 16:29N 34°34' E 135°23'0 0.0
2018-Feb-14 15:56N 34°34' E 135°23'0 0.0
2018-Feb-14 15:29N 34°34' E 135°23'0 0.0
2018-Feb-14 14:59N 34°34' E 135°23'0 0.0
2018-Feb-14 14:29N 34°34' E 135°23'0 0.0
2018-Feb-14 13:56N 34°34' E 135°23'0 0.0
2018-Feb-14 13:29N 34°34' E 135°23'0 0.0
2018-Feb-14 12:59N 34°34' E 135°23'0 0.1
2018-Feb-14 12:26N 34°34' E 135°23'0 0.0
2018-Feb-14 11:56N 34°34' E 135°23'0 0.0
2018-Feb-14 11:29N 34°34' E 135°23'0 0.0
2018-Feb-14 10:56N 34°34' E 135°23'0 0.0
2018-Feb-14 10:29N 34°34' E 135°23'0 0.0
2018-Feb-14 09:59N 34°34' E 135°23'0 0.0
2018-Feb-14 09:29N 34°34' E 135°23'0 0.0
2018-Feb-14 08:59N 34°34' E 135°23'0 0.0
2018-Feb-14 08:29N 34°34' E 135°23'0 0.0
2018-Feb-14 07:59N 34°34' E 135°23'0 0.0
2018-Feb-14 07:29N 34°34' E 135°23'0 0.0
2018-Feb-14 07:00N 34°34' E 135°23'5 9.3
2018-Feb-14 06:30N 34°31' E 135°19'612.2
2018-Feb-14 06:01N 34°27' E 135°13'611.7
2018-Feb-14 05:31N 34°23' E 135°07'611.3
2018-Feb-14 05:00N 34°20' E 135°02'5 9.9
2018-Feb-14 04:31N 34°15' E 134°59'611.7
2018-Feb-14 04:00N 34°10' E 134°56'611.8
2018-Feb-14 03:31N 34°05' E 134°52'611.8
2018-Feb-14 03:00N 34°00' E 134°48'811.7
2018-Feb-14 02:17N 33°53' E 134°43'3 1.1
2018-Feb-13 23:18N 33°51' E 134°39'2 0.4
2018-Feb-13 16:44N 33°52' E 134°42'0 0.0
2018-Feb-13 16:26N 33°52' E 134°42'0 0.0
2018-Feb-13 15:58N 33°52' E 134°42'6 9.8
2018-Feb-13 15:24N 33°57' E 134°45'512.3
2018-Feb-13 15:00N 34°02' E 134°44'612.3
2018-Feb-13 14:30N 34°08' E 134°42'713.8
2018-Feb-13 14:00N 34°14' E 134°39'611.2
2018-Feb-13 13:30N 34°17' E 134°33'612.1
2018-Feb-13 13:00N 34°19' E 134°26'612.1
2018-Feb-13 12:30N 34°22' E 134°20'712.0
2018-Feb-13 11:56N 34°24' E 134°12'7710.3
2018-Feb-13 04:30N 34°06' E 132°42'611.5
2018-Feb-13 04:00N 34°04' E 132°36'810.7
2018-Feb-13 03:17N 34°05' E 132°27'412.3
2018-Feb-13 02:58N 34°07' E 132°23'612.3
2018-Feb-13 02:30N 34°11' E 132°17'4 8.6
2018-Feb-13 02:00N 34°14' E 132°14'0 0.0
2018-Feb-13 01:30N 34°14' E 132°14'0 0.0
2018-Feb-13 01:00N 34°14' E 132°14'0 0.0
2018-Feb-13 00:30N 34°14' E 132°14'0 0.0
2018-Feb-13 00:00N 34°14' E 132°14'0 0.0
2018-Feb-12 23:30N 34°14' E 132°14'0 0.4
2018-Feb-12 23:00N 34°14' E 132°14'0 0.6
2018-Feb-12 22:28N 34°14' E 132°14'0 0.0
2018-Feb-12 21:58N 34°14' E 132°14'0 0.0
2018-Feb-12 21:28N 34°14' E 132°14'0 0.0
2018-Feb-12 20:58N 34°14' E 132°14'0 0.0
2018-Feb-12 20:28N 34°14' E 132°14'0 0.0
2018-Feb-12 19:58N 34°14' E 132°14'0 0.0
2018-Feb-12 19:28N 34°14' E 132°14'0 0.0
2018-Feb-12 18:58N 34°14' E 132°14'0 0.0
2018-Feb-12 18:28N 34°14' E 132°14'0 0.0
2018-Feb-12 17:58N 34°14' E 132°14'0 0.0
2018-Feb-12 17:28N 34°14' E 132°14'0 0.0
2018-Feb-12 16:58N 34°14' E 132°14'0 0.0
2018-Feb-12 16:28N 34°14' E 132°14'0 0.0
2018-Feb-12 15:58N 34°14' E 132°14'0 0.0
2018-Feb-12 15:16N 34°14' E 132°14'0 0.0
2018-Feb-12 14:58N 34°14' E 132°14'0 0.0
2018-Feb-12 14:19N 34°14' E 132°14'0 0.0
2018-Feb-12 13:55N 34°14' E 132°14'0 0.0
2018-Feb-12 13:28N 34°14' E 132°14'0 0.0
2018-Feb-12 12:52N 34°14' E 132°14'0 0.0
2018-Feb-12 12:25N 34°14' E 132°14'0 0.0
2018-Feb-12 11:58N 34°14' E 132°14'0 0.0
2018-Feb-12 11:28N 34°14' E 132°14'0 0.0
2018-Feb-12 10:58N 34°14' E 132°14'0 0.0
2018-Feb-12 10:28N 34°14' E 132°14'2 4.3
2018-Feb-12 10:00N 34°13' E 132°16'611.0
2018-Feb-12 09:30N 34°09' E 132°21'510.9
2018-Feb-12 09:00N 34°05' E 132°26'710.5
2018-Feb-12 08:21N 34°03' E 132°33'410.5
2018-Feb-12 08:00N 34°04' E 132°38'  

Dump ship's entire track history